createdAt,value
2023-04-02T00:01:57.213Z,14.80
2023-04-02T00:10:03.113Z,15.00
2023-04-02T00:18:13.895Z,15.10
2023-04-02T00:26:27.692Z,14.90
2023-04-02T00:34:38.160Z,14.90
2023-04-02T00:42:44.922Z,14.90
2023-04-02T00:50:56.510Z,14.90
2023-04-02T00:59:02.453Z,15.10
2023-04-02T01:07:15.195Z,15.10
2023-04-02T01:15:24.147Z,15.00
2023-04-02T01:23:42.436Z,15.00
2023-04-02T01:31:52.502Z,15.10
2023-04-02T01:40:17.972Z,15.10
2023-04-02T01:48:30.167Z,15.00
2023-04-02T01:56:35.990Z,15.00
2023-04-02T02:04:44.439Z,15.00
2023-04-02T02:12:50.678Z,15.00
2023-04-02T02:21:01.159Z,15.10
2023-04-02T02:29:09.928Z,15.10
2023-04-02T02:37:23.583Z,15.20
2023-04-02T02:45:34.512Z,15.30
2023-04-02T02:53:54.187Z,15.30
2023-04-02T03:02:01.123Z,15.10
2023-04-02T03:10:17.940Z,15.30
2023-04-02T03:18:35.096Z,15.40
2023-04-02T03:26:48.820Z,15.40
2023-04-02T03:34:58.407Z,15.40
2023-04-02T03:43:13.846Z,15.40
2023-04-02T03:51:24.747Z,15.40
2023-04-02T03:59:41.999Z,15.50
2023-04-02T04:07:48.980Z,15.60
2023-04-02T04:16:03.460Z,15.60
2023-04-02T04:24:11.221Z,15.70
2023-04-02T04:32:32.324Z,15.70
2023-04-02T04:40:52.553Z,15.70
2023-04-02T04:49:07.713Z,15.60
2023-04-02T04:57:26.115Z,15.60
2023-04-02T05:05:37.271Z,15.80
2023-04-02T05:13:50.467Z,16.00
2023-04-02T05:22:07.617Z,15.80
2023-04-02T05:30:23.653Z,15.80
2023-04-02T05:38:37.093Z,15.50
2023-04-02T05:46:49.646Z,15.40
2023-04-02T05:55:03.250Z,15.30
2023-04-02T06:03:19.288Z,14.80
2023-04-02T06:11:31.559Z,14.80
2023-04-02T06:19:41.806Z,15.30
2023-04-02T06:27:52.273Z,15.80
2023-04-02T06:36:00.008Z,15.90
2023-04-02T06:44:18.679Z,16.10
2023-04-02T06:52:47.248Z,16.50
2023-04-02T07:00:55.799Z,17.00
2023-04-02T07:09:09.767Z,17.40
2023-04-02T07:17:23.419Z,17.60
2023-04-02T07:25:29.811Z,17.60
2023-04-02T07:33:37.877Z,17.60
2023-04-02T07:41:57.573Z,17.90
2023-04-02T07:50:05.660Z,18.10
2023-04-02T07:58:12.476Z,17.90
2023-04-02T08:06:21.334Z,18.10
2023-04-02T08:14:26.779Z,18.10
2023-04-02T08:22:34.984Z,18.10
2023-04-02T08:30:40.862Z,18.20
2023-04-02T08:38:49.358Z,18.20
2023-04-02T08:46:59.649Z,18.30
2023-04-02T08:55:17.556Z,18.20
2023-04-02T09:03:30.733Z,17.60
2023-04-02T09:11:44.710Z,17.90
2023-04-02T09:19:58.905Z,17.90
2023-04-02T09:28:08.613Z,18.00
2023-04-02T09:36:28.440Z,18.00
2023-04-02T09:44:37.466Z,18.20
2023-04-02T09:52:43.328Z,18.60
2023-04-02T10:00:57.881Z,19.50
2023-04-02T10:09:23.305Z,20.00
2023-04-02T10:17:36.126Z,20.50
2023-04-02T10:25:50.617Z,21.60
2023-04-02T10:34:03.742Z,24.30
2023-04-02T10:42:19.490Z,30.80
2023-04-02T10:50:36.802Z,36.60
2023-04-02T10:58:48.897Z,38.80
2023-04-02T11:07:10.986Z,34.50
2023-04-02T11:15:21.239Z,32.90
2023-04-02T11:23:31.538Z,29.40
2023-04-02T11:31:43.174Z,31.50
2023-04-02T11:39:57.413Z,31.20
2023-04-02T11:48:31.348Z,28.30
2023-04-02T11:56:48.395Z,24.60
2023-04-02T12:05:19.603Z,22.60
2023-04-02T12:13:54.568Z,20.70
2023-04-02T12:22:01.095Z,19.70
2023-04-02T12:30:22.253Z,20.10
2023-04-02T12:38:29.697Z,19.90
2023-04-02T12:46:38.809Z,19.30
2023-04-02T12:54:48.911Z,18.70
2023-04-02T13:03:04.287Z,17.60
2023-04-02T13:11:10.307Z,16.70
2023-04-02T13:19:34.444Z,16.40
2023-04-02T13:27:39.912Z,16.40
2023-04-02T13:35:49.356Z,16.50
2023-04-02T13:43:56.464Z,15.70
2023-04-02T13:52:17.013Z,16.20
2023-04-02T14:00:23.638Z,16.20
2023-04-02T14:08:41.572Z,15.50
2023-04-02T14:17:00.957Z,15.20
2023-04-02T14:25:18.365Z,15.40
2023-04-02T14:33:35.207Z,15.90
2023-04-02T14:41:50.488Z,15.10
2023-04-02T14:49:59.896Z,14.70
2023-04-02T14:58:18.298Z,16.10
2023-04-02T15:06:29.415Z,17.10
2023-04-02T15:14:42.588Z,17.80
2023-04-02T15:23:00.057Z,17.70
2023-04-02T15:31:14.990Z,17.80
2023-04-02T15:39:42.502Z,17.60
2023-04-02T15:48:01.380Z,17.10
2023-04-02T15:56:25.882Z,16.40
2023-04-02T16:04:53.496Z,15.70
2023-04-02T16:12:59.773Z,14.70
2023-04-02T16:21:08.136Z,15.40
2023-04-02T16:29:35.524Z,15.40
2023-04-02T16:46:39.767Z,14.80
2023-04-02T16:54:52.669Z,15.60
2023-04-02T17:03:15.521Z,14.70
2023-04-02T17:11:28.259Z,15.00
2023-04-02T17:19:36.995Z,15.10
2023-04-02T17:27:47.403Z,15.20
2023-04-02T17:36:14.744Z,15.20
2023-04-02T17:44:57.315Z,15.20
2023-04-02T17:53:13.471Z,15.00
2023-04-02T18:01:30.113Z,15.10
2023-04-02T18:09:47.611Z,15.30
2023-04-02T18:18:05.127Z,15.40
2023-04-02T18:26:32.661Z,15.70
2023-04-02T18:34:50.288Z,15.70
2023-04-02T18:43:08.668Z,15.60
2023-04-02T18:51:18.946Z,15.50
2023-04-02T18:59:44.637Z,15.60
2023-04-02T19:07:53.743Z,15.70
2023-04-02T19:16:14.023Z,15.80
2023-04-02T19:24:31.956Z,15.80
2023-04-02T19:32:48.774Z,15.70
2023-04-02T19:41:02.585Z,15.40
2023-04-02T19:49:14.781Z,15.60
2023-04-02T19:57:20.766Z,15.50
2023-04-02T20:05:29.079Z,15.10
2023-04-02T20:13:44.920Z,15.30
2023-04-02T20:21:52.921Z,15.30
2023-04-02T20:29:58.420Z,14.10
2023-04-02T20:38:08.498Z,14.50
2023-04-02T20:46:16.089Z,14.90
2023-04-02T20:54:24.624Z,15.00
2023-04-02T21:02:30.282Z,15.20
2023-04-02T21:10:38.452Z,15.20
2023-04-02T21:18:43.954Z,15.30
2023-04-02T21:26:52.121Z,15.00
2023-04-02T21:34:57.934Z,14.80
2023-04-02T21:43:09.233Z,14.80
2023-04-02T21:51:19.506Z,14.70
2023-04-02T21:59:30.668Z,14.10
2023-04-02T22:07:36.205Z,14.10
2023-04-02T22:15:44.255Z,14.20
2023-04-02T22:23:50.892Z,14.40
2023-04-02T22:41:35.814Z,14.50
2023-04-02T22:49:41.322Z,14.60
2023-04-02T22:57:49.715Z,14.50
2023-04-02T23:06:02.056Z,14.50
2023-04-02T23:14:10.129Z,14.50
2023-04-02T23:22:15.520Z,14.70
2023-04-02T23:30:23.654Z,14.60
2023-04-02T23:38:30.084Z,14.30
2023-04-02T23:46:38.974Z,14.50
2023-04-02T23:54:44.443Z,14.50
